Time;durP1;ratioP1;P1;durP2;ratioP2;P2;SDS_P1;SDS_P2;PMS_P1;PMS_P2;Temp;Humidity;BMP_temperature;BMP_pressure;BME280_temperature;BME280_humidity;BME280_pressure;Samples;Min_cycle;Max_cycle;Signal;HPM_P1;HPM_P2
2022/12/17 13:06:13;;;;;;;25.20;14.82;;;;;;;;;;4879981;29;20048;-79
2022/12/17 13:08:39;;;;;;;27.88;13.57;;;;;;;;;;4878487;29;20128;-80
2022/12/17 13:11:29;;;;;;;25.58;14.02;;;;;;;;;;4879993;29;20518;-82
2022/12/17 13:13:58;;;;;;;27.90;12.95;;;;;;;;;;4880656;29;20128;-80
2022/12/17 13:16:24;;;;;;;23.05;12.77;;;;;;;;;;4880073;29;20029;-81
2022/12/17 13:19:00;;;;;;;29.15;13.77;;;;;;;;;;4881536;29;20044;-81
2022/12/17 13:21:28;;;;;;;25.40;12.77;;;;;;;;;;4878073;29;20090;-81
2022/12/17 13:23:54;;;;;;;26.33;12.88;;;;;;;;;;4881136;29;20083;-81
2022/12/17 13:26:20;;;;;;;24.40;14.32;;;;;;;;;;4879517;29;20037;-80
2022/12/17 13:29:10;;;;;;;29.02;13.65;;;;;;;;;;4869602;29;20025;-81
2022/12/17 13:31:47;;;;;;;27.75;11.77;;;;;;;;;;4875372;29;20563;-80
2022/12/17 13:34:19;;;;;;;26.40;13.63;;;;;;;;;;4879796;29;20041;-81
2022/12/17 13:36:48;;;;;;;24.63;13.43;;;;;;;;;;4880329;29;20112;-81
2022/12/17 13:39:28;;;;;;;28.00;13.10;;;;;;;;;;4899198;28;20034;-81
2022/12/17 13:41:55;;;;;;;23.40;11.45;;;;;;;;;;4975674;28;20030;-80
2022/12/17 13:44:23;;;;;;;23.88;12.40;;;;;;;;;;4977001;28;20023;-82
2022/12/17 13:46:50;;;;;;;25.33;12.88;;;;;;;;;;4975926;28;20556;-81
2022/12/17 13:49:20;;;;;;;26.25;12.68;;;;;;;;;;4976440;28;20544;-81
2022/12/17 13:51:46;;;;;;;24.27;12.88;;;;;;;;;;4974753;28;20030;-81
2022/12/17 13:54:17;;;;;;;30.40;14.10;;;;;;;;;;4975493;28;20026;-81
2022/12/17 13:56:43;;;;;;;24.00;11.82;;;;;;;;;;4977037;28;20093;-80
2022/12/17 13:59:20;;;;;;;23.67;11.85;;;;;;;;;;4978183;28;20035;-79
2022/12/17 14:01:48;;;;;;;25.80;12.70;;;;;;;;;;4976135;28;20517;-81
2022/12/17 14:04:20;;;;;;;21.65;11.05;;;;;;;;;;4978127;28;20049;-80
2022/12/17 14:06:46;;;;;;;22.27;11.00;;;;;;;;;;4974535;28;20023;-80
2022/12/17 14:09:19;;;;;;;23.65;11.20;;;;;;;;;;4980284;28;20074;-80
2022/12/17 14:14:35;;;;;;;21.65;12.65;;;;;;;;;;4971431;28;20033;-80
2022/12/17 14:17:02;;;;;;;22.45;11.40;;;;;;;;;;4982100;28;20030;-80
2022/12/17 14:19:29;;;;;;;24.52;11.48;;;;;;;;;;4964070;28;20484;-81
2022/12/17 14:21:55;;;;;;;23.58;11.30;;;;;;;;;;4961298;28;20031;-79
2022/12/17 14:24:25;;;;;;;21.85;11.48;;;;;;;;;;4979544;28;20033;-81
2022/12/17 14:26:56;;;;;;;22.08;12.38;;;;;;;;;;4978723;28;20085;-81
2022/12/17 14:29:26;;;;;;;21.95;11.85;;;;;;;;;;4980512;28;20027;-81
2022/12/17 14:31:54;;;;;;;25.67;13.52;;;;;;;;;;4979178;28;20035;-81
2022/12/17 14:34:20;;;;;;;24.95;11.45;;;;;;;;;;4978474;28;20030;-81
2022/12/17 14:36:47;;;;;;;24.73;12.27;;;;;;;;;;4968140;28;20035;-81
2022/12/17 14:39:27;;;;;;;26.20;13.20;;;;;;;;;;4965505;28;20030;-81
2022/12/17 14:44:48;;;;;;;24.25;12.98;;;;;;;;;;4980409;28;20464;-81
2022/12/17 14:47:14;;;;;;;24.20;11.73;;;;;;;;;;4979868;28;20034;-81
2022/12/17 14:49:59;;;;;;;26.40;13.65;;;;;;;;;;4981150;28;20019;-81
2022/12/17 14:52:44;;;;;;;26.45;11.80;;;;;;;;;;4978778;28;20023;-81
2022/12/17 14:55:29;;;;;;;23.23;12.18;;;;;;;;;;4980867;28;20030;-81
2022/12/17 14:58:11;;;;;;;23.73;12.20;;;;;;;;;;4980692;28;20029;-82
2022/12/17 15:00:41;;;;;;;20.60;11.05;;;;;;;;;;4979810;28;20034;-81
2022/12/17 15:03:09;;;;;;;22.65;11.52;;;;;;;;;;4962417;28;20029;-81
2022/12/17 15:05:35;;;;;;;23.70;12.05;;;;;;;;;;4980369;28;20038;-81
2022/12/17 15:08:01;;;;;;;20.95;11.18;;;;;;;;;;4964613;28;20508;-81
2022/12/17 15:10:27;;;;;;;21.63;11.43;;;;;;;;;;4981105;28;20023;-81
2022/12/17 15:12:53;;;;;;;23.05;10.88;;;;;;;;;;4963281;28;20033;-80
2022/12/17 15:15:20;;;;;;;23.90;11.20;;;;;;;;;;4980133;28;20031;-81
2022/12/17 15:17:46;;;;;;;23.27;11.18;;;;;;;;;;4978625;28;20098;-81
2022/12/17 15:20:15;;;;;;;24.05;10.85;;;;;;;;;;4979804;28;20370;-81
2022/12/17 15:22:41;;;;;;;20.17;9.80;;;;;;;;;;4963662;28;20050;-81
2022/12/17 15:25:12;;;;;;;19.52;10.00;;;;;;;;;;4978901;28;20061;-80
2022/12/17 15:27:38;;;;;;;19.85;11.68;;;;;;;;;;4962716;28;20055;-81
2022/12/17 15:30:04;;;;;;;21.13;9.30;;;;;;;;;;4971791;28;20385;-81
2022/12/17 15:32:30;;;;;;;24.55;11.13;;;;;;;;;;4958946;28;20118;-81
2022/12/17 15:34:56;;;;;;;24.73;11.55;;;;;;;;;;4961874;28;20055;-81
2022/12/17 15:37:22;;;;;;;21.88;10.85;;;;;;;;;;4960498;29;20415;-81
2022/12/17 15:39:48;;;;;;;21.95;10.02;;;;;;;;;;4959990;29;20050;-81
2022/12/17 15:44:59;;;;;;;20.73;10.90;;;;;;;;;;4980053;28;20084;-81
2022/12/17 15:47:25;;;;;;;19.10;10.98;;;;;;;;;;4978477;28;20057;-81
2022/12/17 15:49:51;;;;;;;23.80;11.02;;;;;;;;;;4981743;28;20030;-81
2022/12/17 15:52:17;;;;;;;23.17;10.95;;;;;;;;;;4982072;28;20023;-81
2022/12/17 15:54:43;;;;;;;24.83;11.43;;;;;;;;;;4982296;28;20023;-81
2022/12/17 15:57:09;;;;;;;20.92;9.82;;;;;;;;;;4979804;28;20027;-80
2022/12/17 15:59:36;;;;;;;21.25;10.48;;;;;;;;;;4985415;28;20057;-79
2022/12/17 16:02:02;;;;;;;20.45;10.70;;;;;;;;;;4969177;28;20097;-80
2022/12/17 16:04:28;;;;;;;21.00;10.95;;;;;;;;;;4981009;28;20125;-81
2022/12/17 16:06:54;;;;;;;19.45;11.07;;;;;;;;;;4981028;28;20031;-80
2022/12/17 16:09:23;;;;;;;19.92;11.15;;;;;;;;;;4982112;28;20053;-80
2022/12/17 16:11:53;;;;;;;20.08;10.45;;;;;;;;;;4979730;28;20107;-80
2022/12/17 16:14:18;;;;;;;21.40;10.63;;;;;;;;;;4979647;28;20087;-79
2022/12/17 16:16:44;;;;;;;23.65;10.55;;;;;;;;;;4979909;28;20062;-80
2022/12/17 16:19:10;;;;;;;19.98;9.50;;;;;;;;;;4977438;28;20065;-80
2022/12/17 16:21:36;;;;;;;21.83;10.52;;;;;;;;;;4975641;28;20077;-79
2022/12/17 16:24:03;;;;;;;20.52;10.35;;;;;;;;;;4964717;28;20161;-79
2022/12/17 16:26:29;;;;;;;21.45;10.13;;;;;;;;;;4983193;28;20042;-79
2022/12/17 16:28:56;;;;;;;23.52;10.52;;;;;;;;;;4974355;28;20030;-79
2022/12/17 16:31:22;;;;;;;20.52;9.73;;;;;;;;;;4962979;28;20038;-79
2022/12/17 16:33:48;;;;;;;20.33;9.93;;;;;;;;;;4981290;28;20031;-79
2022/12/17 16:36:16;;;;;;;20.80;9.50;;;;;;;;;;4981213;28;20031;-80
2022/12/17 16:38:43;;;;;;;19.45;10.02;;;;;;;;;;4978685;28;20409;-79
2022/12/17 16:41:09;;;;;;;26.55;12.15;;;;;;;;;;4981294;28;20027;-79
2022/12/17 16:43:35;;;;;;;20.08;10.77;;;;;;;;;;4981610;28;20024;-79
2022/12/17 16:46:01;;;;;;;21.80;10.25;;;;;;;;;;4976205;28;20031;-79
2022/12/17 16:48:27;;;;;;;18.20;9.73;;;;;;;;;;4979509;28;20117;-80
2022/12/17 16:50:53;;;;;;;20.23;9.80;;;;;;;;;;4981456;28;20130;-79
2022/12/17 16:53:19;;;;;;;17.73;9.32;;;;;;;;;;4979833;28;20114;-79
2022/12/17 16:55:46;;;;;;;18.23;8.90;;;;;;;;;;4980885;28;20062;-79
2022/12/17 16:58:12;;;;;;;16.65;7.93;;;;;;;;;;4980835;28;20098;-79
2022/12/17 17:00:38;;;;;;;22.52;10.63;;;;;;;;;;4985878;28;20037;-79
2022/12/17 17:03:05;;;;;;;17.67;8.73;;;;;;;;;;4967935;28;20035;-79
2022/12/17 17:05:32;;;;;;;19.75;8.75;;;;;;;;;;4951234;28;20035;-79
2022/12/17 17:07:59;;;;;;;17.75;9.43;;;;;;;;;;4980439;28;20107;-79
2022/12/17 17:10:25;;;;;;;19.48;9.07;;;;;;;;;;4985010;28;20050;-79
2022/12/17 17:12:51;;;;;;;17.38;9.68;;;;;;;;;;4988241;28;20029;-78
2022/12/17 17:15:17;;;;;;;20.65;11.30;;;;;;;;;;4983816;28;20097;-79
2022/12/17 17:17:44;;;;;;;19.42;9.88;;;;;;;;;;4977202;28;20070;-79
2022/12/17 17:20:10;;;;;;;18.80;11.35;;;;;;;;;;4977534;28;20099;-79
2022/12/17 17:22:36;;;;;;;19.58;10.48;;;;;;;;;;4974097;28;20126;-79
2022/12/17 17:25:02;;;;;;;19.02;10.38;;;;;;;;;;4977054;28;20027;-79
2022/12/17 17:27:28;;;;;;;22.55;11.00;;;;;;;;;;4978494;28;20120;-79
2022/12/17 17:29:55;;;;;;;16.85;10.30;;;;;;;;;;4965044;28;20027;-79
2022/12/17 17:32:21;;;;;;;22.98;9.52;;;;;;;;;;4977856;28;20029;-79
2022/12/17 17:34:47;;;;;;;23.17;10.98;;;;;;;;;;4978753;28;20034;-80
2022/12/17 17:37:14;;;;;;;26.50;14.20;;;;;;;;;;4980585;28;20078;-80
2022/12/17 17:39:40;;;;;;;20.27;11.30;;;;;;;;;;4978222;28;20027;-79
2022/12/17 17:42:06;;;;;;;23.95;11.30;;;;;;;;;;4977378;28;20038;-80
2022/12/17 17:44:32;;;;;;;21.40;10.20;;;;;;;;;;4978441;28;20037;-79
2022/12/17 17:46:58;;;;;;;20.85;10.77;;;;;;;;;;4978608;28;20121;-79
2022/12/17 17:49:24;;;;;;;18.98;8.80;;;;;;;;;;4978209;28;20054;-79
2022/12/17 17:51:50;;;;;;;18.52;9.23;;;;;;;;;;4979570;28;20037;-80
2022/12/17 17:54:16;;;;;;;17.08;9.15;;;;;;;;;;4969335;28;20035;-79
2022/12/17 17:56:43;;;;;;;20.52;9.55;;;;;;;;;;4978376;28;20093;-79
2022/12/17 17:59:14;;;;;;;17.45;9.18;;;;;;;;;;4980507;28;20031;-79
2022/12/17 18:01:44;;;;;;;18.77;9.45;;;;;;;;;;4979263;28;20082;-79
2022/12/17 18:04:11;;;;;;;22.08;11.52;;;;;;;;;;4977772;28;20050;-79
2022/12/17 18:06:38;;;;;;;16.63;9.50;;;;;;;;;;4977168;28;20102;-79
2022/12/17 18:09:04;;;;;;;21.27;11.70;;;;;;;;;;4978460;28;20031;-79
2022/12/17 18:11:31;;;;;;;22.75;11.55;;;;;;;;;;4974279;28;20057;-79
2022/12/17 18:13:57;;;;;;;21.60;11.52;;;;;;;;;;4977741;28;20035;-79
2022/12/17 18:16:25;;;;;;;22.73;11.45;;;;;;;;;;4976062;28;20039;-79
2022/12/17 18:18:56;;;;;;;20.02;11.00;;;;;;;;;;4977316;28;20037;-79
2022/12/17 18:21:23;;;;;;;21.90;10.88;;;;;;;;;;4992387;28;20042;-79
2022/12/17 18:23:54;;;;;;;20.75;10.63;;;;;;;;;;4980527;28;20035;-79
2022/12/17 18:26:20;;;;;;;19.63;10.13;;;;;;;;;;4981443;28;20043;-78
2022/12/17 18:28:47;;;;;;;22.48;11.00;;;;;;;;;;4982438;28;20026;-79
2022/12/17 18:31:20;;;;;;;25.75;13.93;;;;;;;;;;4981359;28;20031;-79
2022/12/17 18:33:48;;;;;;;18.75;10.35;;;;;;;;;;4978095;28;20082;-79
2022/12/17 18:36:16;;;;;;;25.85;14.52;;;;;;;;;;4964095;28;20026;-79
2022/12/17 18:38:42;;;;;;;27.02;12.65;;;;;;;;;;4977752;28;20039;-79
2022/12/17 18:44:00;;;;;;;17.48;10.00;;;;;;;;;;4977004;28;20114;-79
2022/12/17 18:46:26;;;;;;;18.33;9.32;;;;;;;;;;4961394;28;20033;-79
2022/12/17 18:48:55;;;;;;;18.02;9.30;;;;;;;;;;4976194;28;20054;-78
2022/12/17 18:51:21;;;;;;;18.05;8.65;;;;;;;;;;4975304;28;20026;-78
2022/12/17 18:53:48;;;;;;;15.10;8.70;;;;;;;;;;4976591;28;20050;-79
2022/12/17 18:56:14;;;;;;;20.38;8.25;;;;;;;;;;4961636;28;20035;-79
2022/12/17 18:58:40;;;;;;;18.67;10.40;;;;;;;;;;4971331;28;20058;-79
2022/12/17 19:01:06;;;;;;;20.25;9.82;;;;;;;;;;4967451;28;20037;-78
2022/12/17 19:03:32;;;;;;;17.73;9.65;;;;;;;;;;4981476;28;20392;-79
2022/12/17 19:05:59;;;;;;;20.20;10.27;;;;;;;;;;4980002;28;20507;-78
2022/12/17 19:08:25;;;;;;;13.80;7.45;;;;;;;;;;4982177;28;20026;-78
2022/12/17 19:10:51;;;;;;;15.57;8.60;;;;;;;;;;4980949;28;20041;-78
2022/12/17 19:13:17;;;;;;;14.93;7.47;;;;;;;;;;4963552;28;20094;-79
2022/12/17 19:15:43;;;;;;;14.57;7.68;;;;;;;;;;4980050;28;20069;-79
2022/12/17 19:18:09;;;;;;;28.83;14.18;;;;;;;;;;4979632;28;20027;-79
2022/12/17 19:20:35;;;;;;;15.95;8.13;;;;;;;;;;4979718;28;20137;-80
2022/12/17 19:23:01;;;;;;;14.18;8.00;;;;;;;;;;4979723;28;20045;-79
2022/12/17 19:25:27;;;;;;;15.57;7.15;;;;;;;;;;4978717;28;20481;-79
2022/12/17 19:27:53;;;;;;;12.73;6.75;;;;;;;;;;4980023;28;20027;-78
2022/12/17 19:30:19;;;;;;;13.07;7.10;;;;;;;;;;4978940;28;20030;-79
2022/12/17 19:32:45;;;;;;;14.68;7.32;;;;;;;;;;4979216;28;20441;-79
2022/12/17 19:35:11;;;;;;;14.05;6.18;;;;;;;;;;4980010;28;20034;-79
2022/12/17 19:37:37;;;;;;;16.25;6.72;;;;;;;;;;4979282;28;20085;-79
2022/12/17 19:40:04;;;;;;;16.90;8.60;;;;;;;;;;4978185;28;20114;-78
2022/12/17 19:42:30;;;;;;;13.65;7.90;;;;;;;;;;4980568;28;20035;-78
2022/12/17 19:44:56;;;;;;;14.88;8.05;;;;;;;;;;4976769;28;20396;-78
2022/12/17 19:47:23;;;;;;;16.95;7.25;;;;;;;;;;4978187;28;20026;-79
2022/12/17 19:49:49;;;;;;;15.80;8.77;;;;;;;;;;4980932;28;20031;-78
2022/12/17 19:52:15;;;;;;;19.42;8.75;;;;;;;;;;4984468;28;20077;-78
2022/12/17 19:54:42;;;;;;;16.20;7.47;;;;;;;;;;4978838;28;20034;-78
2022/12/17 19:57:08;;;;;;;17.67;8.38;;;;;;;;;;4976919;28;20053;-79
2022/12/17 19:59:34;;;;;;;16.73;8.27;;;;;;;;;;4964775;28;20027;-80
2022/12/17 20:02:02;;;;;;;18.42;9.35;;;;;;;;;;4976385;28;20027;-78
2022/12/17 20:04:29;;;;;;;19.15;8.65;;;;;;;;;;4955610;28;20034;-79
2022/12/17 20:06:55;;;;;;;17.00;8.50;;;;;;;;;;4950203;28;20042;-79
2022/12/17 20:09:21;;;;;;;15.93;7.40;;;;;;;;;;4977849;28;20396;-78
2022/12/17 20:11:47;;;;;;;25.27;12.43;;;;;;;;;;4978294;28;20050;-79
2022/12/17 20:14:15;;;;;;;35.75;15.48;;;;;;;;;;4963322;28;20086;-78
2022/12/17 20:16:42;;;;;;;36.63;18.60;;;;;;;;;;4977662;28;20030;-78
2022/12/17 20:19:10;;;;;;;44.03;18.25;;;;;;;;;;4960416;28;20035;-78
2022/12/17 20:21:36;;;;;;;29.13;15.88;;;;;;;;;;4977575;28;20117;-78
2022/12/17 20:24:02;;;;;;;23.50;11.45;;;;;;;;;;4977104;28;20117;-78
2022/12/17 20:26:28;;;;;;;23.92;9.43;;;;;;;;;;4974453;28;20035;-78
2022/12/17 20:28:55;;;;;;;37.50;17.95;;;;;;;;;;4957356;28;20401;-79
2022/12/17 20:31:21;;;;;;;32.45;15.23;;;;;;;;;;4950197;29;20074;-78
2022/12/17 20:33:47;;;;;;;37.05;17.48;;;;;;;;;;4964639;28;20024;-78
2022/12/17 20:36:14;;;;;;;35.88;16.15;;;;;;;;;;4973205;28;20038;-79
2022/12/17 20:38:41;;;;;;;34.88;15.07;;;;;;;;;;4977594;28;20038;-79
2022/12/17 20:41:08;;;;;;;36.30;17.30;;;;;;;;;;4960468;28;20034;-79
2022/12/17 20:43:34;;;;;;;25.45;12.85;;;;;;;;;;4975488;28;20030;-79
2022/12/17 20:46:00;;;;;;;25.25;11.55;;;;;;;;;;4976672;28;20033;-79
2022/12/17 20:48:27;;;;;;;22.38;10.02;;;;;;;;;;4971641;28;20019;-79
2022/12/17 20:50:53;;;;;;;15.98;8.32;;;;;;;;;;4973368;28;20082;-79
2022/12/17 20:53:19;;;;;;;15.10;7.85;;;;;;;;;;4959739;28;20062;-79
2022/12/17 20:55:45;;;;;;;14.57;8.20;;;;;;;;;;4960112;28;20113;-79
2022/12/17 20:58:12;;;;;;;16.52;8.25;;;;;;;;;;4977445;28;20035;-79
2022/12/17 21:00:39;;;;;;;15.52;7.35;;;;;;;;;;4977339;28;20133;-79
2022/12/17 21:03:05;;;;;;;16.92;7.50;;;;;;;;;;4975437;28;20416;-79
2022/12/17 21:05:31;;;;;;;17.35;7.35;;;;;;;;;;4976496;28;20026;-79
2022/12/17 21:07:57;;;;;;;14.77;7.93;;;;;;;;;;4976022;28;20374;-78
2022/12/17 21:10:23;;;;;;;16.30;8.40;;;;;;;;;;4976956;28;20019;-79
2022/12/17 21:15:34;;;;;;;17.38;8.07;;;;;;;;;;4963699;28;20038;-79
2022/12/17 21:18:00;;;;;;;13.77;7.68;;;;;;;;;;4974294;28;20033;-78
2022/12/17 21:20:26;;;;;;;18.23;7.45;;;;;;;;;;4974336;28;20442;-79
2022/12/17 21:22:52;;;;;;;16.00;8.30;;;;;;;;;;4974768;28;20039;-79
2022/12/17 21:25:19;;;;;;;14.20;7.28;;;;;;;;;;4977441;28;20054;-79
2022/12/17 21:27:45;;;;;;;18.88;8.18;;;;;;;;;;4976790;28;20107;-78
2022/12/17 21:30:11;;;;;;;12.40;6.93;;;;;;;;;;4974505;28;20085;-79
2022/12/17 21:32:37;;;;;;;15.77;7.72;;;;;;;;;;4975304;28;20050;-78
2022/12/17 21:35:04;;;;;;;15.10;7.05;;;;;;;;;;4975377;28;20027;-78
2022/12/17 21:37:30;;;;;;;13.82;6.50;;;;;;;;;;4974223;28;20090;-78
2022/12/17 21:39:56;;;;;;;14.55;7.63;;;;;;;;;;4973314;28;20486;-78
2022/12/17 21:45:06;;;;;;;15.48;6.45;;;;;;;;;;4954458;28;20042;-77
2022/12/17 21:47:32;;;;;;;13.18;6.97;;;;;;;;;;4973448;28;20019;-77
2022/12/17 21:49:58;;;;;;;14.15;6.70;;;;;;;;;;4977008;28;20456;-78
2022/12/17 21:52:25;;;;;;;12.27;6.60;;;;;;;;;;4973973;28;20411;-78
2022/12/17 21:54:51;;;;;;;12.68;7.10;;;;;;;;;;4976036;28;20076;-78
2022/12/17 21:57:17;;;;;;;14.63;7.03;;;;;;;;;;4973427;28;20041;-78
2022/12/17 21:59:43;;;;;;;13.75;6.45;;;;;;;;;;4974129;28;20102;-78
2022/12/17 22:02:09;;;;;;;13.95;7.53;;;;;;;;;;4973075;28;20035;-77
2022/12/17 22:04:35;;;;;;;14.98;6.63;;;;;;;;;;4976376;28;20019;-77
2022/12/17 22:07:01;;;;;;;13.10;7.53;;;;;;;;;;4965950;28;20046;-77
2022/12/17 22:09:28;;;;;;;14.55;7.45;;;;;;;;;;4978932;28;20034;-77
2022/12/17 22:14:01;;;;;;;15.63;8.02;;;;;;;;;;4974676;28;20027;-78
2022/12/17 22:14:40;;;;;;;16.27;8.38;;;;;;;;;;4973880;28;20031;-78
2022/12/17 22:17:06;;;;;;;18.25;10.63;;;;;;;;;;4960034;28;20019;-78
2022/12/17 22:19:32;;;;;;;11.25;6.90;;;;;;;;;;4966138;28;20242;-77
2022/12/17 22:21:58;;;;;;;15.23;8.07;;;;;;;;;;4972495;28;20031;-78
2022/12/17 22:24:25;;;;;;;12.93;7.03;;;;;;;;;;4974523;28;20143;-78
2022/12/17 22:26:58;;;;;;;15.73;7.80;;;;;;;;;;4975054;28;20118;-77
2022/12/17 22:32:58;;;;;;;12.65;6.70;;;;;;;;;;4976582;28;20050;-77
2022/12/17 22:34:58;;;;;;;12.25;7.90;;;;;;;;;;4963711;28;20102;-78
2022/12/17 22:37:24;;;;;;;10.18;5.25;;;;;;;;;;4972322;28;20499;-78
2022/12/17 22:39:50;;;;;;;8.27;4.32;;;;;;;;;;4977725;28;20026;-78
2022/12/17 22:45:01;;;;;;;11.88;4.45;;;;;;;;;;4977735;28;20045;-78
2022/12/17 22:47:27;;;;;;;10.63;5.05;;;;;;;;;;4968955;28;20019;-78
2022/12/17 22:49:53;;;;;;;8.48;4.60;;;;;;;;;;4977344;28;20340;-78
2022/12/17 22:52:19;;;;;;;11.95;5.47;;;;;;;;;;4976883;28;20023;-78
2022/12/17 22:54:45;;;;;;;9.25;5.43;;;;;;;;;;4976760;28;20026;-78
2022/12/17 22:57:11;;;;;;;10.80;5.38;;;;;;;;;;4960111;28;20026;-78
2022/12/17 22:59:37;;;;;;;13.95;5.97;;;;;;;;;;4975707;28;20405;-78
2022/12/17 23:02:03;;;;;;;10.23;5.40;;;;;;;;;;4976516;28;20030;-78
2022/12/17 23:04:29;;;;;;;11.35;6.00;;;;;;;;;;4976477;28;20019;-79
2022/12/17 23:06:55;;;;;;;9.85;5.00;;;;;;;;;;4977436;28;20037;-79
2022/12/17 23:09:22;;;;;;;11.38;5.40;;;;;;;;;;4977652;28;20022;-79
2022/12/17 23:11:49;;;;;;;14.98;6.68;;;;;;;;;;4978055;28;20023;-78
2022/12/17 23:14:15;;;;;;;12.13;6.18;;;;;;;;;;4976172;28;20035;-79
2022/12/17 23:16:41;;;;;;;13.15;6.20;;;;;;;;;;4977376;28;20039;-79
2022/12/17 23:19:07;;;;;;;10.60;5.70;;;;;;;;;;4976551;28;20027;-78
2022/12/17 23:21:34;;;;;;;13.50;6.05;;;;;;;;;;4977485;28;20031;-78
2022/12/17 23:24:00;;;;;;;10.43;5.07;;;;;;;;;;4976379;28;20038;-78
2022/12/17 23:26:27;;;;;;;11.63;5.03;;;;;;;;;;4975707;28;20054;-78
2022/12/17 23:28:57;;;;;;;12.63;6.10;;;;;;;;;;4977503;28;20019;-79
2022/12/17 23:31:23;;;;;;;9.07;4.68;;;;;;;;;;4972163;28;20027;-78
2022/12/17 23:33:49;;;;;;;12.43;5.80;;;;;;;;;;4977242;28;20027;-78
2022/12/17 23:36:17;;;;;;;13.40;5.85;;;;;;;;;;4976113;28;20061;-78
2022/12/17 23:38:43;;;;;;;11.20;4.95;;;;;;;;;;4976141;28;20583;-78
2022/12/17 23:41:16;;;;;;;10.63;5.28;;;;;;;;;;4976836;28;20042;-78
2022/12/17 23:43:42;;;;;;;9.45;5.03;;;;;;;;;;4973722;28;20031;-78
2022/12/17 23:46:08;;;;;;;11.45;5.78;;;;;;;;;;4974889;28;20039;-78
2022/12/17 23:48:36;;;;;;;14.95;5.75;;;;;;;;;;4976258;28;20094;-78
2022/12/17 23:51:03;;;;;;;11.43;5.72;;;;;;;;;;4976096;28;20034;-78
2022/12/17 23:53:29;;;;;;;11.88;5.60;;;;;;;;;;4976417;28;20102;-78
2022/12/17 23:55:56;;;;;;;10.50;5.45;;;;;;;;;;4974619;28;20105;-77
2022/12/17 23:58:22;;;;;;;13.25;5.63;;;;;;;;;;4974988;28;21471;-77
